sensor_id;sensor_type;location;lat;lon;timestamp;P1;durP1;ratioP1;P2;durP2;ratioP2
30080;SDS011;16902;50.816;12.828;2022-10-22T00:03:38;23.38;;;18.67;;
30080;SDS011;16902;50.816;12.828;2022-10-22T00:08:40;22.80;;;18.13;;
30080;SDS011;16902;50.816;12.828;2022-10-22T00:13:42;21.80;;;18.13;;
30080;SDS011;16902;50.816;12.828;2022-10-22T00:18:44;17.08;;;13.80;;
30080;SDS011;16902;50.816;12.828;2022-10-22T00:23:46;16.48;;;13.18;;
30080;SDS011;16902;50.816;12.828;2022-10-22T00:28:49;18.42;;;14.75;;
30080;SDS011;16902;50.816;12.828;2022-10-22T00:33:50;17.95;;;13.60;;
30080;SDS011;16902;50.816;12.828;2022-10-22T00:38:52;14.50;;;12.07;;
30080;SDS011;16902;50.816;12.828;2022-10-22T00:43:58;15.43;;;12.05;;
30080;SDS011;16902;50.816;12.828;2022-10-22T00:49:02;21.85;;;14.38;;
30080;SDS011;16902;50.816;12.828;2022-10-22T00:54:05;16.38;;;13.05;;
30080;SDS011;16902;50.816;12.828;2022-10-22T00:59:09;15.23;;;12.77;;
30080;SDS011;16902;50.816;12.828;2022-10-22T01:04:13;15.75;;;11.55;;
30080;SDS011;16902;50.816;12.828;2022-10-22T01:25:37;20.02;;;12.55;;
30080;SDS011;16902;50.816;12.828;2022-10-22T01:30:50;12.98;;;10.60;;
30080;SDS011;16902;50.816;12.828;2022-10-22T01:35:56;14.10;;;11.85;;
30080;SDS011;16902;50.816;12.828;2022-10-22T01:41:00;15.15;;;12.98;;
30080;SDS011;16902;50.816;12.828;2022-10-22T01:46:03;17.58;;;13.02;;
30080;SDS011;16902;50.816;12.828;2022-10-22T01:51:17;19.10;;;15.93;;
30080;SDS011;16902;50.816;12.828;2022-10-22T02:07:29;15.45;;;13.20;;
30080;SDS011;16902;50.816;12.828;2022-10-22T02:12:36;18.35;;;13.50;;
30080;SDS011;16902;50.816;12.828;2022-10-22T02:17:40;18.02;;;14.35;;
30080;SDS011;16902;50.816;12.828;2022-10-22T02:22:45;29.45;;;25.90;;
30080;SDS011;16902;50.816;12.828;2022-10-22T02:27:53;20.42;;;18.30;;
30080;SDS011;16902;50.816;12.828;2022-10-22T02:38:11;19.27;;;14.45;;
30080;SDS011;16902;50.816;12.828;2022-10-22T02:43:16;15.10;;;12.52;;
30080;SDS011;16902;50.816;12.828;2022-10-22T02:48:18;16.38;;;13.32;;
30080;SDS011;16902;50.816;12.828;2022-10-22T02:53:21;14.98;;;11.25;;
30080;SDS011;16902;50.816;12.828;2022-10-22T02:58:23;14.40;;;11.27;;
30080;SDS011;16902;50.816;12.828;2022-10-22T03:03:25;15.90;;;13.20;;
30080;SDS011;16902;50.816;12.828;2022-10-22T03:08:27;15.70;;;13.90;;
30080;SDS011;16902;50.816;12.828;2022-10-22T03:13:28;15.20;;;12.48;;
30080;SDS011;16902;50.816;12.828;2022-10-22T03:18:30;18.35;;;13.43;;
30080;SDS011;16902;50.816;12.828;2022-10-22T03:23:32;21.08;;;13.65;;
30080;SDS011;16902;50.816;12.828;2022-10-22T03:28:34;17.13;;;13.95;;
30080;SDS011;16902;50.816;12.828;2022-10-22T03:33:37;16.85;;;11.73;;
30080;SDS011;16902;50.816;12.828;2022-10-22T03:38:39;14.20;;;11.48;;
30080;SDS011;16902;50.816;12.828;2022-10-22T03:43:41;13.35;;;10.80;;
30080;SDS011;16902;50.816;12.828;2022-10-22T03:48:43;17.30;;;11.93;;
30080;SDS011;16902;50.816;12.828;2022-10-22T03:53:45;18.08;;;13.73;;
30080;SDS011;16902;50.816;12.828;2022-10-22T03:58:46;24.38;;;14.98;;
30080;SDS011;16902;50.816;12.828;2022-10-22T04:03:48;21.55;;;13.82;;
30080;SDS011;16902;50.816;12.828;2022-10-22T04:08:50;18.58;;;14.13;;
30080;SDS011;16902;50.816;12.828;2022-10-22T04:13:52;14.52;;;12.00;;
30080;SDS011;16902;50.816;12.828;2022-10-22T04:18:54;15.45;;;12.57;;
30080;SDS011;16902;50.816;12.828;2022-10-22T04:23:56;15.93;;;12.80;;
30080;SDS011;16902;50.816;12.828;2022-10-22T04:28:57;14.38;;;12.85;;
30080;SDS011;16902;50.816;12.828;2022-10-22T04:34:00;14.82;;;12.07;;
30080;SDS011;16902;50.816;12.828;2022-10-22T04:39:02;11.45;;;10.15;;
30080;SDS011;16902;50.816;12.828;2022-10-22T04:44:05;11.65;;;10.30;;
30080;SDS011;16902;50.816;12.828;2022-10-22T04:49:16;11.02;;;9.60;;
30080;SDS011;16902;50.816;12.828;2022-10-22T04:54:18;14.65;;;10.95;;
30080;SDS011;16902;50.816;12.828;2022-10-22T04:59:20;11.82;;;10.25;;
30080;SDS011;16902;50.816;12.828;2022-10-22T05:04:22;15.30;;;12.32;;
30080;SDS011;16902;50.816;12.828;2022-10-22T05:09:24;13.65;;;11.05;;
30080;SDS011;16902;50.816;12.828;2022-10-22T05:14:26;16.55;;;11.88;;
30080;SDS011;16902;50.816;12.828;2022-10-22T05:19:29;19.00;;;13.77;;
30080;SDS011;16902;50.816;12.828;2022-10-22T05:24:32;22.10;;;15.10;;
30080;SDS011;16902;50.816;12.828;2022-10-22T05:29:34;25.45;;;17.42;;
30080;SDS011;16902;50.816;12.828;2022-10-22T05:34:36;22.77;;;16.00;;
30080;SDS011;16902;50.816;12.828;2022-10-22T05:39:38;22.05;;;14.05;;
30080;SDS011;16902;50.816;12.828;2022-10-22T05:44:41;17.20;;;12.35;;
30080;SDS011;16902;50.816;12.828;2022-10-22T05:49:43;18.10;;;13.13;;
30080;SDS011;16902;50.816;12.828;2022-10-22T05:54:45;17.58;;;12.45;;
30080;SDS011;16902;50.816;12.828;2022-10-22T05:59:47;15.88;;;12.63;;
30080;SDS011;16902;50.816;12.828;2022-10-22T06:04:49;16.40;;;12.75;;
30080;SDS011;16902;50.816;12.828;2022-10-22T06:09:50;14.52;;;12.25;;
30080;SDS011;16902;50.816;12.828;2022-10-22T06:14:54;19.35;;;13.55;;
30080;SDS011;16902;50.816;12.828;2022-10-22T06:19:56;16.55;;;13.07;;
30080;SDS011;16902;50.816;12.828;2022-10-22T06:24:57;18.15;;;13.60;;
30080;SDS011;16902;50.816;12.828;2022-10-22T06:29:59;16.67;;;13.38;;
30080;SDS011;16902;50.816;12.828;2022-10-22T06:35:01;19.00;;;12.00;;
30080;SDS011;16902;50.816;12.828;2022-10-22T06:40:03;12.68;;;9.75;;
30080;SDS011;16902;50.816;12.828;2022-10-22T06:45:05;13.82;;;8.85;;
30080;SDS011;16902;50.816;12.828;2022-10-22T06:50:08;11.02;;;9.07;;
30080;SDS011;16902;50.816;12.828;2022-10-22T06:55:10;8.55;;;7.57;;
30080;SDS011;16902;50.816;12.828;2022-10-22T07:00:12;9.38;;;7.82;;
30080;SDS011;16902;50.816;12.828;2022-10-22T07:05:14;14.90;;;10.45;;
30080;SDS011;16902;50.816;12.828;2022-10-22T07:10:16;10.77;;;8.48;;
30080;SDS011;16902;50.816;12.828;2022-10-22T07:15:18;8.43;;;6.45;;
30080;SDS011;16902;50.816;12.828;2022-10-22T07:20:19;7.30;;;5.90;;
30080;SDS011;16902;50.816;12.828;2022-10-22T07:25:22;9.27;;;6.68;;
30080;SDS011;16902;50.816;12.828;2022-10-22T07:30:23;9.07;;;6.22;;
30080;SDS011;16902;50.816;12.828;2022-10-22T07:35:25;8.52;;;7.03;;
30080;SDS011;16902;50.816;12.828;2022-10-22T07:40:27;8.75;;;7.05;;
30080;SDS011;16902;50.816;12.828;2022-10-22T07:45:29;8.07;;;7.22;;
30080;SDS011;16902;50.816;12.828;2022-10-22T07:50:31;11.80;;;10.15;;
30080;SDS011;16902;50.816;12.828;2022-10-22T07:55:33;9.93;;;7.97;;
30080;SDS011;16902;50.816;12.828;2022-10-22T08:00:35;9.65;;;8.75;;
30080;SDS011;16902;50.816;12.828;2022-10-22T08:05:38;11.43;;;8.55;;
30080;SDS011;16902;50.816;12.828;2022-10-22T08:10:40;9.70;;;7.82;;
30080;SDS011;16902;50.816;12.828;2022-10-22T08:15:43;11.32;;;8.43;;
30080;SDS011;16902;50.816;12.828;2022-10-22T08:20:44;8.50;;;7.68;;
30080;SDS011;16902;50.816;12.828;2022-10-22T08:25:47;8.07;;;6.05;;
30080;SDS011;16902;50.816;12.828;2022-10-22T08:30:48;6.88;;;5.68;;
30080;SDS011;16902;50.816;12.828;2022-10-22T08:35:50;6.25;;;5.65;;
30080;SDS011;16902;50.816;12.828;2022-10-22T08:40:53;8.23;;;5.28;;
30080;SDS011;16902;50.816;12.828;2022-10-22T08:51:33;5.95;;;4.93;;
30080;SDS011;16902;50.816;12.828;2022-10-22T08:56:42;6.95;;;4.78;;
30080;SDS011;16902;50.816;12.828;2022-10-22T09:01:46;4.68;;;3.78;;
30080;SDS011;16902;50.816;12.828;2022-10-22T09:06:50;5.75;;;4.25;;
30080;SDS011;16902;50.816;12.828;2022-10-22T09:11:55;4.50;;;3.75;;
30080;SDS011;16902;50.816;12.828;2022-10-22T09:27:25;4.72;;;3.20;;
30080;SDS011;16902;50.816;12.828;2022-10-22T09:32:28;3.55;;;2.95;;
30080;SDS011;16902;50.816;12.828;2022-10-22T09:37:31;2.85;;;2.65;;
30080;SDS011;16902;50.816;12.828;2022-10-22T09:42:33;2.60;;;2.40;;
30080;SDS011;16902;50.816;12.828;2022-10-22T09:47:39;2.20;;;1.85;;
30080;SDS011;16902;50.816;12.828;2022-10-22T09:58:20;2.33;;;2.13;;
30080;SDS011;16902;50.816;12.828;2022-10-22T10:03:24;2.75;;;2.42;;
30080;SDS011;16902;50.816;12.828;2022-10-22T10:08:28;3.03;;;2.58;;
30080;SDS011;16902;50.816;12.828;2022-10-22T10:13:48;2.70;;;2.50;;
30080;SDS011;16902;50.816;12.828;2022-10-22T10:30:18;3.58;;;3.30;;
30080;SDS011;16902;50.816;12.828;2022-10-22T10:35:25;4.72;;;4.32;;
30080;SDS011;16902;50.816;12.828;2022-10-22T11:02:18;4.65;;;4.40;;
30080;SDS011;16902;50.816;12.828;2022-10-22T11:07:12;3.90;;;3.70;;
30080;SDS011;16902;50.816;12.828;2022-10-22T11:12:35;4.30;;;3.90;;
30080;SDS011;16902;50.816;12.828;2022-10-22T11:17:43;4.38;;;4.15;;
30080;SDS011;16902;50.816;12.828;2022-10-22T11:22:56;6.32;;;5.85;;
30080;SDS011;16902;50.816;12.828;2022-10-22T11:28:39;5.40;;;5.10;;
30080;SDS011;16902;50.816;12.828;2022-10-22T11:33:47;5.00;;;4.70;;
30080;SDS011;16902;50.816;12.828;2022-10-22T11:39:30;5.90;;;5.50;;
30080;SDS011;16902;50.816;12.828;2022-10-22T11:44:59;5.97;;;5.68;;
30080;SDS011;16902;50.816;12.828;2022-10-22T11:50:16;7.35;;;6.95;;
30080;SDS011;16902;50.816;12.828;2022-10-22T12:00:39;8.57;;;8.18;;
30080;SDS011;16902;50.816;12.828;2022-10-22T12:05:52;8.07;;;7.57;;
30080;SDS011;16902;50.816;12.828;2022-10-22T12:27:17;8.48;;;7.93;;
30080;SDS011;16902;50.816;12.828;2022-10-22T12:32:36;8.35;;;7.95;;
30080;SDS011;16902;50.816;12.828;2022-10-22T12:37:40;9.77;;;9.38;;
30080;SDS011;16902;50.816;12.828;2022-10-22T12:42:46;10.02;;;9.48;;
30080;SDS011;16902;50.816;12.828;2022-10-22T12:47:51;9.65;;;9.15;;
30080;SDS011;16902;50.816;12.828;2022-10-22T12:52:57;10.27;;;9.80;;
30080;SDS011;16902;50.816;12.828;2022-10-22T12:57:59;9.70;;;9.30;;
30080;SDS011;16902;50.816;12.828;2022-10-22T13:03:06;9.88;;;9.45;;
30080;SDS011;16902;50.816;12.828;2022-10-22T13:08:08;10.82;;;10.25;;
30080;SDS011;16902;50.816;12.828;2022-10-22T13:18:39;9.80;;;9.38;;
30080;SDS011;16902;50.816;12.828;2022-10-22T13:23:50;9.63;;;9.13;;
30080;SDS011;16902;50.816;12.828;2022-10-22T13:28:54;8.75;;;8.25;;
30080;SDS011;16902;50.816;12.828;2022-10-22T13:34:01;8.20;;;7.80;;
30080;SDS011;16902;50.816;12.828;2022-10-22T13:39:17;7.85;;;7.40;;
30080;SDS011;16902;50.816;12.828;2022-10-22T13:44:20;8.40;;;7.97;;
30080;SDS011;16902;50.816;12.828;2022-10-22T13:49:22;7.35;;;6.80;;
30080;SDS011;16902;50.816;12.828;2022-10-22T13:54:24;7.60;;;7.00;;
30080;SDS011;16902;50.816;12.828;2022-10-22T13:59:26;7.95;;;7.55;;
30080;SDS011;16902;50.816;12.828;2022-10-22T14:04:27;7.93;;;7.50;;
30080;SDS011;16902;50.816;12.828;2022-10-22T14:09:29;7.53;;;7.13;;
30080;SDS011;16902;50.816;12.828;2022-10-22T14:14:31;7.80;;;7.30;;
30080;SDS011;16902;50.816;12.828;2022-10-22T14:19:33;7.55;;;7.05;;
30080;SDS011;16902;50.816;12.828;2022-10-22T14:24:35;7.07;;;6.57;;
30080;SDS011;16902;50.816;12.828;2022-10-22T14:29:37;7.22;;;6.82;;
30080;SDS011;16902;50.816;12.828;2022-10-22T14:34:39;7.18;;;6.68;;
30080;SDS011;16902;50.816;12.828;2022-10-22T14:39:41;7.13;;;6.63;;
30080;SDS011;16902;50.816;12.828;2022-10-22T14:44:43;7.25;;;6.85;;
30080;SDS011;16902;50.816;12.828;2022-10-22T14:49:46;7.25;;;6.60;;
30080;SDS011;16902;50.816;12.828;2022-10-22T14:54:47;7.25;;;6.50;;
30080;SDS011;16902;50.816;12.828;2022-10-22T14:59:49;6.72;;;6.03;;
30080;SDS011;16902;50.816;12.828;2022-10-22T15:04:55;6.15;;;5.85;;
30080;SDS011;16902;50.816;12.828;2022-10-22T15:09:57;6.78;;;6.38;;
30080;SDS011;16902;50.816;12.828;2022-10-22T15:15:00;6.65;;;6.25;;
30080;SDS011;16902;50.816;12.828;2022-10-22T15:20:02;6.03;;;5.72;;
30080;SDS011;16902;50.816;12.828;2022-10-22T15:25:06;6.72;;;6.15;;
30080;SDS011;16902;50.816;12.828;2022-10-22T15:30:09;6.50;;;6.07;;
30080;SDS011;16902;50.816;12.828;2022-10-22T15:35:11;6.68;;;5.93;;
30080;SDS011;16902;50.816;12.828;2022-10-22T15:40:13;5.75;;;5.25;;
30080;SDS011;16902;50.816;12.828;2022-10-22T15:45:15;7.07;;;6.38;;
30080;SDS011;16902;50.816;12.828;2022-10-22T15:50:17;6.60;;;6.00;;
30080;SDS011;16902;50.816;12.828;2022-10-22T15:55:19;6.10;;;5.50;;
30080;SDS011;16902;50.816;12.828;2022-10-22T16:00:21;6.25;;;5.72;;
30080;SDS011;16902;50.816;12.828;2022-10-22T16:05:23;6.53;;;6.03;;
30080;SDS011;16902;50.816;12.828;2022-10-22T16:10:27;6.53;;;5.60;;
30080;SDS011;16902;50.816;12.828;2022-10-22T16:15:28;7.63;;;6.90;;
30080;SDS011;16902;50.816;12.828;2022-10-22T16:20:30;6.55;;;6.00;;
30080;SDS011;16902;50.816;12.828;2022-10-22T16:25:42;8.93;;;6.82;;
30080;SDS011;16902;50.816;12.828;2022-10-22T16:30:43;7.03;;;6.43;;
30080;SDS011;16902;50.816;12.828;2022-10-22T16:35:46;9.13;;;7.43;;
30080;SDS011;16902;50.816;12.828;2022-10-22T16:40:48;8.73;;;7.82;;
30080;SDS011;16902;50.816;12.828;2022-10-22T16:45:50;8.63;;;7.93;;
30080;SDS011;16902;50.816;12.828;2022-10-22T16:50:52;10.10;;;9.00;;
30080;SDS011;16902;50.816;12.828;2022-10-22T16:55:54;8.95;;;8.18;;
30080;SDS011;16902;50.816;12.828;2022-10-22T17:00:56;7.18;;;6.45;;
30080;SDS011;16902;50.816;12.828;2022-10-22T17:05:58;8.18;;;7.03;;
30080;SDS011;16902;50.816;12.828;2022-10-22T17:11:11;13.43;;;9.75;;
30080;SDS011;16902;50.816;12.828;2022-10-22T17:16:18;10.70;;;9.73;;
30080;SDS011;16902;50.816;12.828;2022-10-22T17:21:21;12.35;;;9.10;;
30080;SDS011;16902;50.816;12.828;2022-10-22T17:26:24;11.52;;;10.43;;
30080;SDS011;16902;50.816;12.828;2022-10-22T17:31:28;10.32;;;9.50;;
30080;SDS011;16902;50.816;12.828;2022-10-22T17:36:33;10.95;;;9.38;;
30080;SDS011;16902;50.816;12.828;2022-10-22T17:41:36;11.27;;;10.10;;
30080;SDS011;16902;50.816;12.828;2022-10-22T17:46:38;10.98;;;9.88;;
30080;SDS011;16902;50.816;12.828;2022-10-22T17:51:40;10.25;;;9.18;;
30080;SDS011;16902;50.816;12.828;2022-10-22T17:56:42;10.57;;;9.48;;
30080;SDS011;16902;50.816;12.828;2022-10-22T18:01:43;12.38;;;8.85;;
30080;SDS011;16902;50.816;12.828;2022-10-22T18:06:47;10.48;;;9.48;;
30080;SDS011;16902;50.816;12.828;2022-10-22T18:11:49;11.52;;;10.35;;
30080;SDS011;16902;50.816;12.828;2022-10-22T18:16:53;9.65;;;8.40;;
30080;SDS011;16902;50.816;12.828;2022-10-22T18:21:55;11.15;;;8.65;;
30080;SDS011;16902;50.816;12.828;2022-10-22T18:26:57;9.40;;;8.52;;
30080;SDS011;16902;50.816;12.828;2022-10-22T18:31:59;8.75;;;8.00;;
30080;SDS011;16902;50.816;12.828;2022-10-22T18:37:00;8.25;;;7.15;;
30080;SDS011;16902;50.816;12.828;2022-10-22T18:42:02;8.95;;;7.53;;
30080;SDS011;16902;50.816;12.828;2022-10-22T18:47:06;9.30;;;8.38;;
30080;SDS011;16902;50.816;12.828;2022-10-22T18:52:09;10.00;;;8.93;;
30080;SDS011;16902;50.816;12.828;2022-10-22T18:57:10;9.18;;;8.27;;
30080;SDS011;16902;50.816;12.828;2022-10-22T19:02:12;10.57;;;9.57;;
30080;SDS011;16902;50.816;12.828;2022-10-22T19:07:17;9.60;;;8.57;;
30080;SDS011;16902;50.816;12.828;2022-10-22T19:12:19;10.40;;;9.40;;
30080;SDS011;16902;50.816;12.828;2022-10-22T19:17:22;10.65;;;9.45;;
30080;SDS011;16902;50.816;12.828;2022-10-22T19:22:23;10.85;;;9.73;;
30080;SDS011;16902;50.816;12.828;2022-10-22T19:27:25;13.23;;;9.82;;
30080;SDS011;16902;50.816;12.828;2022-10-22T19:32:27;10.13;;;9.02;;
30080;SDS011;16902;50.816;12.828;2022-10-22T19:37:32;10.07;;;9.00;;
30080;SDS011;16902;50.816;12.828;2022-10-22T19:42:35;10.25;;;8.98;;
30080;SDS011;16902;50.816;12.828;2022-10-22T19:47:37;15.35;;;11.73;;
30080;SDS011;16902;50.816;12.828;2022-10-22T19:52:39;12.98;;;11.13;;
30080;SDS011;16902;50.816;12.828;2022-10-22T19:57:41;12.85;;;10.73;;
30080;SDS011;16902;50.816;12.828;2022-10-22T20:02:44;12.63;;;10.38;;
30080;SDS011;16902;50.816;12.828;2022-10-22T20:07:45;10.85;;;9.75;;
30080;SDS011;16902;50.816;12.828;2022-10-22T20:12:47;11.68;;;10.13;;
30080;SDS011;16902;50.816;12.828;2022-10-22T20:17:49;11.98;;;10.75;;
30080;SDS011;16902;50.816;12.828;2022-10-22T20:22:51;11.68;;;10.57;;
30080;SDS011;16902;50.816;12.828;2022-10-22T20:27:53;13.07;;;11.57;;
30080;SDS011;16902;50.816;12.828;2022-10-22T20:32:54;13.07;;;11.82;;
30080;SDS011;16902;50.816;12.828;2022-10-22T20:37:56;13.00;;;11.57;;
30080;SDS011;16902;50.816;12.828;2022-10-22T20:42:58;14.68;;;11.82;;
30080;SDS011;16902;50.816;12.828;2022-10-22T20:48:01;14.23;;;11.35;;
30080;SDS011;16902;50.816;12.828;2022-10-22T20:53:04;14.95;;;12.43;;
30080;SDS011;16902;50.816;12.828;2022-10-22T20:58:06;15.35;;;13.07;;
30080;SDS011;16902;50.816;12.828;2022-10-22T21:03:08;15.27;;;13.65;;
30080;SDS011;16902;50.816;12.828;2022-10-22T21:08:10;15.15;;;13.48;;
30080;SDS011;16902;50.816;12.828;2022-10-22T21:13:17;15.32;;;13.13;;
30080;SDS011;16902;50.816;12.828;2022-10-22T21:18:19;16.98;;;13.50;;
30080;SDS011;16902;50.816;12.828;2022-10-22T21:23:21;16.70;;;14.95;;
30080;SDS011;16902;50.816;12.828;2022-10-22T21:28:23;16.60;;;14.77;;
30080;SDS011;16902;50.816;12.828;2022-10-22T21:33:25;18.92;;;16.63;;
30080;SDS011;16902;50.816;12.828;2022-10-22T21:38:27;16.77;;;15.00;;
30080;SDS011;16902;50.816;12.828;2022-10-22T21:43:29;17.30;;;15.50;;
30080;SDS011;16902;50.816;12.828;2022-10-22T21:48:31;15.63;;;13.90;;
30080;SDS011;16902;50.816;12.828;2022-10-22T21:53:33;20.13;;;18.02;;
30080;SDS011;16902;50.816;12.828;2022-10-22T21:58:35;19.42;;;17.50;;
30080;SDS011;16902;50.816;12.828;2022-10-22T22:03:37;24.63;;;19.05;;
30080;SDS011;16902;50.816;12.828;2022-10-22T22:08:41;20.77;;;18.45;;
30080;SDS011;16902;50.816;12.828;2022-10-22T22:13:43;22.13;;;18.23;;
30080;SDS011;16902;50.816;12.828;2022-10-22T22:18:45;19.40;;;17.15;;
30080;SDS011;16902;50.816;12.828;2022-10-22T22:23:48;19.83;;;16.48;;
30080;SDS011;16902;50.816;12.828;2022-10-22T22:28:50;24.63;;;19.30;;
30080;SDS011;16902;50.816;12.828;2022-10-22T22:39:07;19.92;;;15.80;;
30080;SDS011;16902;50.816;12.828;2022-10-22T22:44:11;19.30;;;16.55;;
30080;SDS011;16902;50.816;12.828;2022-10-22T22:49:14;20.13;;;16.10;;
30080;SDS011;16902;50.816;12.828;2022-10-22T22:54:16;20.15;;;15.38;;
30080;SDS011;16902;50.816;12.828;2022-10-22T22:59:18;19.92;;;16.75;;
30080;SDS011;16902;50.816;12.828;2022-10-22T23:04:20;18.38;;;16.35;;
30080;SDS011;16902;50.816;12.828;2022-10-22T23:09:25;18.45;;;15.70;;
30080;SDS011;16902;50.816;12.828;2022-10-22T23:14:27;19.58;;;14.85;;
30080;SDS011;16902;50.816;12.828;2022-10-22T23:19:29;19.20;;;14.55;;
30080;SDS011;16902;50.816;12.828;2022-10-22T23:24:31;17.02;;;14.35;;
30080;SDS011;16902;50.816;12.828;2022-10-22T23:29:33;19.50;;;15.95;;
30080;SDS011;16902;50.816;12.828;2022-10-22T23:34:36;16.92;;;15.13;;
30080;SDS011;16902;50.816;12.828;2022-10-22T23:39:38;17.92;;;15.40;;
30080;SDS011;16902;50.816;12.828;2022-10-22T23:44:40;17.27;;;15.18;;
30080;SDS011;16902;50.816;12.828;2022-10-22T23:49:42;18.65;;;14.68;;
30080;SDS011;16902;50.816;12.828;2022-10-22T23:54:43;16.42;;;14.20;;
30080;SDS011;16902;50.816;12.828;2022-10-22T23:59:45;16.27;;;14.50;;
